Terminal Aerodrome Forecast
Issued by NWS

Home | Current Version | Previous Version | Text Only | Print | Product List | Glossary Off
Versions: 1 2 3 4 5 6 7 8 9 10 11 12 13 14 15 16 17 18 19

000
FTUS43 KABR 231100 AAC
TAFMBG
TAF AMD
KMBG 231118Z 2311/2406 34016G24KT 5SM -SN BR OVC011
      TEMPO 2312/2316 2SM -SN BLSN OVC007
     FM231600 32020G30KT 4SM -SN BLSN OVC015
     FM232100 33019KT P6SM -SN OVC025=

USA.gov is the U.S. government's official web portal to all federal, state and local government web resources and services.